createdAt,value
2018-09-21T00:00:37.264Z,996.41
2018-09-21T00:01:37.291Z,996.40
2018-09-21T00:02:37.265Z,996.39
2018-09-21T00:03:37.235Z,996.37
2018-09-21T00:04:37.219Z,996.37
2018-09-21T00:05:37.210Z,996.38
2018-09-21T00:06:37.205Z,996.37
2018-09-21T00:07:37.189Z,996.36
2018-09-21T00:08:37.190Z,996.34
2018-09-21T00:09:37.165Z,996.28
2018-09-21T00:10:37.158Z,996.32
2018-09-21T00:11:37.143Z,996.32
2018-09-21T00:12:37.136Z,996.28
2018-09-21T00:13:37.134Z,996.26
2018-09-21T00:14:37.109Z,996.24
2018-09-21T00:15:37.100Z,996.25
2018-09-21T00:16:37.089Z,996.26
2018-09-21T00:17:37.089Z,996.24
2018-09-21T00:18:37.081Z,996.20
2018-09-21T00:19:37.052Z,996.19
2018-09-21T00:20:37.040Z,996.17
2018-09-21T00:21:37.032Z,996.15
2018-09-21T00:22:37.034Z,996.12
2018-09-21T00:23:37.009Z,996.15
2018-09-21T00:24:37.011Z,996.12
2018-09-21T00:25:36.986Z,996.12
2018-09-21T00:26:36.973Z,996.16
2018-09-21T00:27:36.994Z,996.15
2018-09-21T00:28:36.954Z,996.13
2018-09-21T00:29:36.953Z,996.01
2018-09-21T00:30:36.933Z,996.07
2018-09-21T00:31:36.919Z,996.04
2018-09-21T00:32:36.906Z,996.00
2018-09-21T00:33:36.896Z,995.93
2018-09-21T00:34:36.897Z,995.98
2018-09-21T00:35:36.872Z,995.95
2018-09-21T00:36:36.861Z,995.94
2018-09-21T00:37:36.849Z,995.90
2018-09-21T00:38:36.838Z,995.86
2018-09-21T00:39:36.843Z,995.90
2018-09-21T00:40:36.817Z,995.81
2018-09-21T00:41:36.806Z,995.83
2018-09-21T00:42:36.809Z,995.81
2018-09-21T00:43:36.785Z,995.84
2018-09-21T00:44:36.774Z,995.76
2018-09-21T00:45:36.776Z,995.74
2018-09-21T00:46:36.752Z,995.75
2018-09-21T00:47:36.741Z,995.71
2018-09-21T00:48:36.728Z,995.65
2018-09-21T00:49:36.734Z,995.69
2018-09-21T00:50:36.708Z,995.67
2018-09-21T00:51:36.741Z,995.59
2018-09-21T00:52:36.687Z,995.60
2018-09-21T00:53:36.674Z,995.59
2018-09-21T00:54:36.664Z,995.61
2018-09-21T00:55:36.653Z,995.56
2018-09-21T00:56:36.640Z,995.56
2018-09-21T00:57:36.648Z,995.52
2018-09-21T00:58:36.621Z,995.50
2018-09-21T00:59:36.609Z,995.50
2018-09-21T01:00:36.599Z,995.49
2018-09-21T01:01:36.587Z,995.49
2018-09-21T01:02:36.576Z,995.43
2018-09-21T01:03:36.580Z,995.49
2018-09-21T01:04:36.553Z,995.42
2018-09-21T01:05:36.543Z,995.41
2018-09-21T01:06:36.532Z,995.45
2018-09-21T01:07:36.522Z,995.39
2018-09-21T01:08:36.524Z,995.40
2018-09-21T01:09:36.498Z,995.39
2018-09-21T01:10:36.486Z,995.40
2018-09-21T01:11:36.476Z,995.41
2018-09-21T01:12:36.480Z,995.44
2018-09-21T01:13:36.456Z,995.37
2018-09-21T01:14:36.440Z,995.43
2018-09-21T01:15:36.427Z,995.35
2018-09-21T01:16:36.431Z,995.33
2018-09-21T01:17:36.406Z,995.36
2018-09-21T01:18:36.408Z,995.33
2018-09-21T01:19:36.399Z,995.36
2018-09-21T01:20:36.374Z,995.36
2018-09-21T01:21:36.378Z,995.31
2018-09-21T01:22:36.352Z,995.28
2018-09-21T01:23:36.338Z,995.29
2018-09-21T01:24:36.327Z,995.24
2018-09-21T01:25:36.319Z,995.23
2018-09-21T01:26:36.324Z,995.27
2018-09-21T01:27:36.310Z,995.19
2018-09-21T01:28:36.284Z,995.18
2018-09-21T01:29:36.274Z,995.21
2018-09-21T01:30:36.264Z,995.17
2018-09-21T01:31:36.252Z,995.19
2018-09-21T01:32:36.261Z,995.16
2018-09-21T01:33:36.228Z,995.15
2018-09-21T01:34:36.232Z,995.15
2018-09-21T01:35:36.205Z,995.16
2018-09-21T01:36:36.194Z,995.12
2018-09-21T01:37:36.185Z,995.11
2018-09-21T01:38:36.185Z,995.11
2018-09-21T01:39:36.163Z,995.04
2018-09-21T01:40:36.151Z,995.10
2018-09-21T01:41:36.144Z,995.03
2018-09-21T01:42:36.126Z,994.99
2018-09-21T01:43:36.134Z,995.00
2018-09-21T01:44:36.105Z,994.97
2018-09-21T01:45:36.094Z,994.97
2018-09-21T01:46:36.084Z,994.95
2018-09-21T01:47:36.073Z,994.90
2018-09-21T01:48:36.060Z,994.89
2018-09-21T01:49:36.065Z,994.85
2018-09-21T01:50:36.139Z,994.84
2018-09-21T01:51:36.025Z,994.86
2018-09-21T01:52:36.017Z,994.84
2018-09-21T01:53:36.006Z,994.81
2018-09-21T01:54:35.995Z,994.77
2018-09-21T01:55:35.982Z,994.75
2018-09-21T01:56:35.985Z,994.73
2018-09-21T01:57:35.960Z,994.68
2018-09-21T01:58:35.952Z,994.65
2018-09-21T01:59:35.939Z,994.66
2018-09-21T02:00:35.943Z,994.63
2018-09-21T02:01:35.915Z,994.62
2018-09-21T02:02:35.926Z,994.55
2018-09-21T02:03:35.894Z,994.55
2018-09-21T02:04:35.883Z,994.60
2018-09-21T02:05:35.870Z,994.54
2018-09-21T02:06:35.860Z,994.50
2018-09-21T02:07:35.848Z,994.48
2018-09-21T02:08:35.853Z,994.52
2018-09-21T02:09:35.885Z,994.50
2018-09-21T02:10:35.815Z,994.50
2018-09-21T02:11:35.825Z,994.46
2018-09-21T02:12:35.835Z,994.49
2018-09-21T02:13:35.785Z,994.42
2018-09-21T02:14:35.771Z,994.37
2018-09-21T02:15:35.759Z,994.41
2018-09-21T02:16:35.749Z,994.32
2018-09-21T02:17:35.746Z,994.32
2018-09-21T02:18:35.800Z,994.27
2018-09-21T02:19:35.713Z,994.31
2018-09-21T02:20:35.703Z,994.29
2018-09-21T02:21:35.690Z,994.23
2018-09-21T02:22:35.684Z,994.25
2018-09-21T02:23:35.673Z,994.25
2018-09-21T02:24:35.676Z,994.24
2018-09-21T02:25:35.648Z,994.25
2018-09-21T02:26:35.635Z,994.25
2018-09-21T02:27:35.624Z,994.21
2018-09-21T02:28:35.611Z,994.19
2018-09-21T02:29:35.641Z,994.20
2018-09-21T02:30:35.617Z,994.14
2018-09-21T02:31:35.580Z,994.09
2018-09-21T02:32:35.569Z,994.13
2018-09-21T02:33:35.558Z,994.08
2018-09-21T02:34:35.548Z,994.09
2018-09-21T02:35:35.552Z,994.08
2018-09-21T02:36:35.526Z,994.11
2018-09-21T02:37:35.516Z,994.09
2018-09-21T02:38:35.509Z,994.11
2018-09-21T02:39:35.553Z,994.05
2018-09-21T02:40:35.483Z,994.02
2018-09-21T02:41:35.473Z,993.99
2018-09-21T02:42:35.460Z,993.99
2018-09-21T02:43:35.451Z,993.97
2018-09-21T02:44:35.441Z,993.98
2018-09-21T02:45:35.441Z,993.98
2018-09-21T02:46:35.419Z,993.98
2018-09-21T02:47:35.407Z,993.98
2018-09-21T02:48:35.404Z,993.97
2018-09-21T02:49:35.386Z,993.96
2018-09-21T02:50:35.387Z,993.93
2018-09-21T02:51:35.365Z,993.95
2018-09-21T02:52:35.351Z,993.92
2018-09-21T02:53:35.370Z,993.90
2018-09-21T02:54:35.332Z,993.86
2018-09-21T02:55:35.345Z,993.86
2018-09-21T02:56:35.307Z,993.78
2018-09-21T02:57:35.299Z,993.77
2018-09-21T02:58:35.290Z,993.72
2018-09-21T02:59:35.275Z,993.70
2018-09-21T03:00:35.344Z,993.67
2018-09-21T03:01:35.265Z,993.63
2018-09-21T03:02:35.243Z,993.66
2018-09-21T03:03:35.234Z,993.62
2018-09-21T03:04:35.219Z,993.64
2018-09-21T03:05:35.210Z,993.59
2018-09-21T03:06:35.211Z,993.51
2018-09-21T03:07:35.187Z,993.49
2018-09-21T03:08:35.177Z,993.46
2018-09-21T03:09:35.166Z,993.46
2018-09-21T03:10:35.195Z,993.42
2018-09-21T03:11:35.143Z,993.33
2018-09-21T03:12:35.133Z,993.36
2018-09-21T03:13:35.180Z,993.34
2018-09-21T03:14:35.112Z,993.32
2018-09-21T03:15:35.103Z,993.33
2018-09-21T03:16:35.122Z,993.24
2018-09-21T03:17:35.076Z,993.21
2018-09-21T03:18:35.081Z,993.26
2018-09-21T03:19:35.057Z,993.21
2018-09-21T03:20:35.060Z,993.23
2018-09-21T03:21:35.033Z,993.22
2018-09-21T03:22:35.023Z,993.17
2018-09-21T03:23:35.011Z,993.15
2018-09-21T03:24:35.000Z,993.10
2018-09-21T03:25:35.007Z,993.10
2018-09-21T03:26:34.980Z,993.14
2018-09-21T03:27:34.967Z,993.10
2018-09-21T03:28:34.957Z,993.09
2018-09-21T03:29:34.947Z,993.05
2018-09-21T03:30:34.949Z,993.02
2018-09-21T03:31:34.922Z,992.95
2018-09-21T03:32:34.914Z,992.96
2018-09-21T03:33:34.905Z,992.93
2018-09-21T03:34:34.890Z,992.91
2018-09-21T03:35:34.896Z,992.88
2018-09-21T03:36:34.868Z,992.84
2018-09-21T03:37:34.859Z,992.81
2018-09-21T03:38:34.848Z,992.70
2018-09-21T03:39:34.837Z,992.69
2018-09-21T03:40:34.863Z,992.63
2018-09-21T03:41:34.833Z,992.63
2018-09-21T03:42:34.842Z,992.63
2018-09-21T03:43:34.793Z,992.57
2018-09-21T03:44:34.778Z,992.53
2018-09-21T03:45:34.774Z,992.53
2018-09-21T03:46:34.760Z,992.55
2018-09-21T03:47:34.751Z,992.59
2018-09-21T03:48:34.755Z,992.62
2018-09-21T03:49:34.729Z,992.59
2018-09-21T03:50:34.715Z,992.63
2018-09-21T03:51:34.706Z,992.56
2018-09-21T03:52:34.695Z,992.54
2018-09-21T03:53:34.702Z,992.56
2018-09-21T03:54:34.674Z,992.53
2018-09-21T03:55:34.666Z,992.52
2018-09-21T03:56:34.650Z,992.51
2018-09-21T03:57:34.656Z,992.47
2018-09-21T03:58:34.630Z,992.50
2018-09-21T03:59:34.634Z,992.49
2018-09-21T04:00:34.608Z,992.48
2018-09-21T04:01:34.597Z,992.41
2018-09-21T04:02:34.584Z,992.40
2018-09-21T04:03:34.590Z,992.36
2018-09-21T04:04:34.566Z,992.38
2018-09-21T04:05:34.552Z,992.31
2018-09-21T04:06:34.541Z,992.26
2018-09-21T04:07:34.529Z,992.22
2018-09-21T04:08:34.535Z,992.19
2018-09-21T04:09:34.510Z,992.17
2018-09-21T04:10:34.500Z,992.17
2018-09-21T04:11:34.486Z,992.05
2018-09-21T04:12:34.475Z,992.03
2018-09-21T04:13:34.481Z,992.00
2018-09-21T04:14:34.454Z,991.98
2018-09-21T04:15:34.442Z,991.91
2018-09-21T04:16:34.432Z,991.85
2018-09-21T04:17:34.420Z,991.82
2018-09-21T04:18:34.420Z,991.83
2018-09-21T04:19:34.399Z,991.81
2018-09-21T04:20:34.401Z,991.75
2018-09-21T04:21:34.382Z,991.76
2018-09-21T04:22:34.371Z,991.76
2018-09-21T04:23:34.356Z,991.79
2018-09-21T04:24:34.358Z,991.77
2018-09-21T04:25:34.350Z,991.77
2018-09-21T04:26:34.323Z,991.71
2018-09-21T04:27:34.310Z,991.71
2018-09-21T04:28:34.302Z,991.77
2018-09-21T04:29:34.294Z,991.67
2018-09-21T04:30:34.295Z,991.63
2018-09-21T04:31:34.270Z,991.59
2018-09-21T04:32:34.258Z,991.58
2018-09-21T04:33:34.247Z,991.56
2018-09-21T04:34:34.236Z,991.57
2018-09-21T04:35:34.263Z,991.55
2018-09-21T04:36:34.212Z,991.56
2018-09-21T04:37:34.203Z,991.54
2018-09-21T04:38:34.192Z,991.50
2018-09-21T04:39:34.184Z,991.39
2018-09-21T04:40:34.171Z,991.37
2018-09-21T04:41:34.177Z,991.38
2018-09-21T04:42:34.147Z,991.36
2018-09-21T04:43:34.135Z,991.32
2018-09-21T04:44:34.143Z,991.33
2018-09-21T04:45:34.172Z,991.36
2018-09-21T04:46:34.121Z,991.29
2018-09-21T04:47:34.112Z,991.28
2018-09-21T04:48:34.082Z,991.30
2018-09-21T04:49:34.072Z,991.30
2018-09-21T04:50:34.060Z,991.27
2018-09-21T04:51:34.049Z,991.32
2018-09-21T04:52:34.099Z,991.30
2018-09-21T04:53:34.038Z,991.30
2018-09-21T04:54:34.017Z,991.32
2018-09-21T04:55:34.007Z,991.28
2018-09-21T04:56:33.992Z,991.28
2018-09-21T04:57:33.998Z,991.29
2018-09-21T04:58:34.016Z,991.27
2018-09-21T04:59:33.968Z,991.29
2018-09-21T05:00:33.961Z,991.24
2018-09-21T05:01:33.939Z,991.28
2018-09-21T05:02:33.927Z,991.31
2018-09-21T05:03:33.924Z,991.27
2018-09-21T05:04:33.918Z,991.25
2018-09-21T05:05:33.899Z,991.23
2018-09-21T05:06:33.883Z,991.26
2018-09-21T05:07:33.886Z,991.11
2018-09-21T05:08:33.861Z,991.19
2018-09-21T05:09:33.854Z,991.17
2018-09-21T05:10:33.840Z,991.14
2018-09-21T05:11:33.829Z,991.13
2018-09-21T05:12:33.831Z,991.20
2018-09-21T05:13:33.820Z,991.08
2018-09-21T05:14:33.797Z,991.04
2018-09-21T05:15:33.802Z,991.12
2018-09-21T05:16:33.778Z,991.10
2018-09-21T05:17:33.765Z,991.06
2018-09-21T05:18:33.753Z,990.96
2018-09-21T05:19:33.762Z,991.07
2018-09-21T05:20:33.734Z,991.04
2018-09-21T05:21:33.724Z,991.06
2018-09-21T05:22:33.710Z,991.04
2018-09-21T05:23:33.699Z,991.05
2018-09-21T05:24:33.689Z,991.10
2018-09-21T05:25:33.690Z,991.00
2018-09-21T05:26:33.681Z,991.02
2018-09-21T05:27:33.691Z,991.01
2018-09-21T05:28:33.645Z,991.02
2018-09-21T05:29:33.648Z,990.96
2018-09-21T05:30:33.622Z,990.87
2018-09-21T05:31:33.629Z,990.98
2018-09-21T05:32:33.605Z,990.89
2018-09-21T05:33:33.590Z,991.02
2018-09-21T05:34:33.631Z,990.97
2018-09-21T05:35:33.567Z,991.02
2018-09-21T05:36:33.556Z,990.95
2018-09-21T05:37:33.561Z,991.00
2018-09-21T05:38:33.533Z,991.04
2018-09-21T05:39:33.525Z,990.97
2018-09-21T05:40:33.512Z,990.96
2018-09-21T05:41:33.528Z,990.79
2018-09-21T05:42:33.506Z,990.89
2018-09-21T05:43:33.481Z,990.83
2018-09-21T05:44:33.470Z,990.85
2018-09-21T05:45:33.457Z,990.87
2018-09-21T05:46:33.448Z,990.86
2018-09-21T05:47:33.456Z,990.85
2018-09-21T05:48:33.426Z,990.82
2018-09-21T05:49:33.417Z,990.86
2018-09-21T05:50:33.402Z,990.84
2018-09-21T05:51:33.391Z,990.88
2018-09-21T05:52:33.380Z,990.95
2018-09-21T05:53:33.385Z,990.92
2018-09-21T05:54:33.365Z,990.96
2018-09-21T05:55:33.347Z,991.00
2018-09-21T05:56:33.336Z,990.92
2018-09-21T05:57:33.332Z,990.85
2018-09-21T05:58:33.331Z,990.87
2018-09-21T05:59:33.319Z,990.89
2018-09-21T06:00:33.292Z,990.86
2018-09-21T06:01:33.283Z,990.88
2018-09-21T06:02:33.276Z,990.83
2018-09-21T06:03:33.273Z,990.90
2018-09-21T06:04:33.261Z,990.83
2018-09-21T06:05:33.239Z,990.84
2018-09-21T06:06:33.226Z,990.87
2018-09-21T06:07:33.217Z,990.82
2018-09-21T06:08:33.205Z,990.78
2018-09-21T06:09:33.212Z,990.89
2018-09-21T06:10:33.184Z,990.84
2018-09-21T06:11:33.173Z,990.80
2018-09-21T06:12:33.160Z,990.80
2018-09-21T06:13:33.166Z,990.84
2018-09-21T06:14:33.139Z,990.72
2018-09-21T06:15:33.155Z,990.73
2018-09-21T06:16:33.116Z,990.63
2018-09-21T06:17:33.108Z,990.69
2018-09-21T06:18:33.096Z,990.62
2018-09-21T06:19:33.205Z,990.61
2018-09-21T06:20:33.072Z,990.58
2018-09-21T06:21:33.079Z,990.61
2018-09-21T06:22:44.847Z,990.65
2018-09-21T06:23:33.041Z,990.54
2018-09-21T06:24:33.028Z,990.65
2018-09-21T06:25:33.016Z,990.60
2018-09-21T06:26:33.064Z,990.58
2018-09-21T06:27:32.997Z,990.60
2018-09-21T06:28:32.984Z,990.49
2018-09-21T06:29:32.972Z,990.57
2018-09-21T06:30:32.960Z,990.55
2018-09-21T06:31:32.953Z,990.57
2018-09-21T06:32:32.955Z,990.40
2018-09-21T06:33:32.933Z,990.39
2018-09-21T06:34:32.919Z,990.48
2018-09-21T06:35:32.912Z,990.49
2018-09-21T06:36:32.911Z,990.45
2018-09-21T06:37:32.887Z,990.44
2018-09-21T06:38:32.891Z,990.46
2018-09-21T06:39:32.865Z,990.43
2018-09-21T06:40:32.852Z,990.47
2018-09-21T06:41:32.867Z,990.45
2018-09-21T06:42:32.831Z,990.36
2018-09-21T06:43:32.821Z,990.39
2018-09-21T06:44:32.809Z,990.43
2018-09-21T06:45:32.800Z,990.40
2018-09-21T06:46:32.785Z,990.40
2018-09-21T06:47:32.789Z,990.42
2018-09-21T06:48:32.765Z,990.34
2018-09-21T06:49:32.753Z,990.50
2018-09-21T06:50:32.744Z,990.39
2018-09-21T06:51:32.731Z,990.43
2018-09-21T06:52:32.748Z,990.44
2018-09-21T06:53:32.723Z,990.38
2018-09-21T06:54:32.700Z,990.29
2018-09-21T06:55:32.686Z,990.36
2018-09-21T06:56:32.676Z,990.28
2018-09-21T06:57:32.665Z,990.34
2018-09-21T06:58:32.690Z,990.34
2018-09-21T06:59:32.644Z,990.30
2018-09-21T07:00:32.631Z,990.25
2018-09-21T07:01:32.710Z,990.26
2018-09-21T07:02:32.609Z,990.20
2018-09-21T07:03:32.600Z,990.21
2018-09-21T07:04:32.607Z,990.29
2018-09-21T07:05:32.577Z,990.24
2018-09-21T07:06:32.569Z,990.24
2018-09-21T07:07:32.557Z,990.30
2018-09-21T07:08:32.546Z,990.37
2018-09-21T07:09:32.562Z,990.34
2018-09-21T07:10:32.524Z,990.29
2018-09-21T07:11:32.513Z,990.24
2018-09-21T07:12:32.501Z,990.38
2018-09-21T07:13:32.491Z,990.42
2018-09-21T07:14:32.479Z,990.44
2018-09-21T07:15:32.485Z,990.45
2018-09-21T07:16:32.455Z,990.42
2018-09-21T07:17:32.467Z,990.41
2018-09-21T07:18:32.437Z,990.35
2018-09-21T07:19:32.428Z,990.36
2018-09-21T07:20:32.426Z,990.30
2018-09-21T07:21:32.404Z,990.35
2018-09-21T07:22:32.413Z,990.33
2018-09-21T07:23:32.382Z,990.34
2018-09-21T07:24:32.375Z,990.34
2018-09-21T07:25:32.389Z,990.48
2018-09-21T07:26:32.354Z,990.47
2018-09-21T07:27:32.342Z,990.38
2018-09-21T07:28:32.331Z,990.42
2018-09-21T07:29:32.321Z,990.49
2018-09-21T07:30:32.310Z,990.37
2018-09-21T07:31:32.318Z,990.38
2018-09-21T07:32:32.291Z,990.38
2018-09-21T07:33:32.281Z,990.34
2018-09-21T07:34:32.269Z,990.27
2018-09-21T07:35:32.258Z,990.22
2018-09-21T07:36:32.251Z,990.41
2018-09-21T07:37:32.279Z,990.39
2018-09-21T07:38:32.223Z,990.42
2018-09-21T07:39:32.215Z,990.41
2018-09-21T07:40:32.205Z,990.45
2018-09-21T07:41:32.206Z,990.50
2018-09-21T07:42:32.181Z,990.67
2018-09-21T07:43:32.173Z,990.37
2018-09-21T07:44:32.197Z,990.38
2018-09-21T07:45:32.174Z,990.59
2018-09-21T07:46:32.137Z,990.60
2018-09-21T07:47:32.130Z,990.59
2018-09-21T07:48:32.117Z,990.69
2018-09-21T07:49:32.107Z,990.43
2018-09-21T07:50:32.112Z,990.53
2018-09-21T07:51:32.101Z,990.47
2018-09-21T07:52:32.075Z,990.50
2018-09-21T07:53:32.064Z,990.40
2018-09-21T07:54:32.162Z,990.26
2018-09-21T07:55:32.045Z,990.51
2018-09-21T07:56:32.046Z,990.41
2018-09-21T07:57:32.023Z,990.33
2018-09-21T07:58:32.028Z,990.28
2018-09-21T07:59:31.998Z,990.35
2018-09-21T08:00:31.991Z,990.48
2018-09-21T08:01:31.994Z,990.40
2018-09-21T08:02:31.983Z,990.48
2018-09-21T08:03:31.974Z,990.52
2018-09-21T08:04:31.947Z,990.73
2018-09-21T08:05:31.937Z,990.57
2018-09-21T08:06:31.927Z,990.50
2018-09-21T08:07:31.964Z,990.61
2018-09-21T08:08:31.906Z,990.55
2018-09-21T08:09:31.893Z,990.64
2018-09-21T08:10:31.885Z,990.57
2018-09-21T08:11:31.878Z,990.54
2018-09-21T08:12:31.862Z,990.67
2018-09-21T08:13:31.870Z,990.70
2018-09-21T08:14:31.866Z,990.67
2018-09-21T08:15:31.832Z,990.69
2018-09-21T08:16:31.821Z,990.59
2018-09-21T08:17:31.810Z,990.59
2018-09-21T08:18:31.817Z,990.65
2018-09-21T08:19:31.795Z,990.67
2018-09-21T08:20:31.778Z,990.75
2018-09-21T08:21:31.766Z,990.73
2018-09-21T08:22:31.755Z,990.74
2018-09-21T08:23:31.747Z,990.82
2018-09-21T08:24:31.753Z,990.80
2018-09-21T08:25:31.727Z,990.80
2018-09-21T08:26:31.769Z,990.86
2018-09-21T08:27:31.704Z,990.84
2018-09-21T08:28:31.692Z,990.68
2018-09-21T08:29:31.683Z,990.61
2018-09-21T08:30:31.684Z,990.67
2018-09-21T08:31:31.787Z,990.71
2018-09-21T08:32:31.652Z,990.63
2018-09-21T08:33:31.642Z,990.80
2018-09-21T08:34:31.629Z,990.94
2018-09-21T08:35:31.637Z,990.89
2018-09-21T08:36:31.609Z,990.78
2018-09-21T08:37:31.596Z,990.77
2018-09-21T08:38:31.585Z,990.79
2018-09-21T08:39:31.577Z,990.79
2018-09-21T08:40:31.584Z,990.85
2018-09-21T08:41:31.554Z,990.67
2018-09-21T08:42:31.543Z,990.68
2018-09-21T08:43:31.533Z,990.96
2018-09-21T08:44:31.520Z,990.74
2018-09-21T08:45:31.528Z,990.70
2018-09-21T08:46:31.513Z,990.79
2018-09-21T08:47:31.487Z,990.64
2018-09-21T08:48:31.476Z,990.50
2018-09-21T08:49:31.466Z,990.58
2018-09-21T08:50:31.460Z,990.41
2018-09-21T08:51:31.458Z,990.34
2018-09-21T08:52:31.434Z,990.27
2018-09-21T08:53:31.423Z,990.21
2018-09-21T08:54:31.415Z,990.22
2018-09-21T08:55:31.401Z,990.45
2018-09-21T08:56:31.404Z,990.30
2018-09-21T08:57:31.379Z,990.29
2018-09-21T08:58:31.368Z,990.22
2018-09-21T08:59:31.380Z,990.17
2018-09-21T09:00:31.347Z,990.29
2018-09-21T09:01:31.350Z,990.27
2018-09-21T09:02:31.324Z,990.14
2018-09-21T09:03:31.441Z,990.23
2018-09-21T09:04:31.306Z,990.30
2018-09-21T09:05:31.291Z,990.13
2018-09-21T09:06:31.281Z,990.24
2018-09-21T09:07:31.267Z,990.23
2018-09-21T09:08:31.271Z,990.21
2018-09-21T09:09:31.245Z,990.21
2018-09-21T09:10:31.254Z,990.36
2018-09-21T09:11:31.223Z,990.33
2018-09-21T09:12:31.214Z,990.13
2018-09-21T09:13:31.205Z,990.08
2018-09-21T09:14:31.190Z,990.29
2018-09-21T09:15:31.194Z,990.22
2018-09-21T09:16:31.170Z,990.17
2018-09-21T09:17:31.159Z,990.26
2018-09-21T09:18:31.147Z,990.17
2018-09-21T09:19:31.159Z,990.07
2018-09-21T09:20:31.124Z,990.06
2018-09-21T09:21:31.113Z,989.88
2018-09-21T09:22:31.106Z,989.97
2018-09-21T09:23:31.095Z,989.95
2018-09-21T09:24:31.084Z,990.00
2018-09-21T09:25:31.086Z,990.02
2018-09-21T09:26:31.060Z,989.99
2018-09-21T09:27:31.047Z,990.07
2018-09-21T09:28:31.054Z,989.97
2018-09-21T09:29:31.027Z,990.10
2018-09-21T09:30:31.014Z,990.09
2018-09-21T09:31:31.006Z,990.12
2018-09-21T09:32:30.992Z,990.15
2018-09-21T09:33:30.995Z,990.14
2018-09-21T09:34:30.970Z,990.23
2018-09-21T09:35:30.962Z,990.20
2018-09-21T09:36:30.950Z,990.23
2018-09-21T09:37:30.939Z,990.28
2018-09-21T09:38:30.942Z,990.47
2018-09-21T09:39:30.915Z,990.31
2018-09-21T09:40:30.907Z,990.41
2018-09-21T09:41:30.896Z,990.45
2018-09-21T09:42:30.897Z,990.36
2018-09-21T09:43:30.892Z,990.48
2018-09-21T09:44:30.863Z,990.53
2018-09-21T09:45:30.850Z,990.57
2018-09-21T09:46:30.839Z,990.61
2018-09-21T09:47:30.829Z,990.66
2018-09-21T09:48:30.900Z,990.71
2018-09-21T09:49:30.809Z,990.84
2018-09-21T09:50:30.795Z,990.89
2018-09-21T09:51:30.784Z,990.91
2018-09-21T09:52:30.775Z,991.02
2018-09-21T09:53:30.763Z,991.21
2018-09-21T09:54:30.767Z,991.31
2018-09-21T09:55:30.745Z,991.34
2018-09-21T09:56:30.734Z,991.93
2018-09-21T09:57:30.719Z,991.60
2018-09-21T09:58:30.708Z,991.61
2018-09-21T09:59:30.833Z,991.60
2018-09-21T10:00:30.687Z,991.69
2018-09-21T10:01:30.675Z,991.65
2018-09-21T10:02:30.665Z,991.77
2018-09-21T10:03:30.665Z,991.77
2018-09-21T10:04:30.641Z,991.79
2018-09-21T10:05:30.671Z,991.80
2018-09-21T10:06:30.623Z,991.79
2018-09-21T10:07:30.608Z,992.17
2018-09-21T10:08:30.597Z,992.10
2018-09-21T10:09:30.586Z,992.27
2018-09-21T10:10:30.718Z,992.41
2018-09-21T10:11:30.585Z,992.45
2018-09-21T10:12:30.553Z,992.53
2018-09-21T10:13:30.543Z,992.50
2018-09-21T10:14:30.533Z,992.44
2018-09-21T10:15:30.519Z,992.53
2018-09-21T10:16:30.637Z,992.49
2018-09-21T10:17:30.499Z,992.64
2018-09-21T10:18:30.487Z,992.71
2018-09-21T10:19:30.478Z,992.63
2018-09-21T10:20:30.494Z,992.88
2018-09-21T10:21:30.456Z,992.80
2018-09-21T10:22:30.461Z,992.78
2018-09-21T10:23:30.445Z,992.73
2018-09-21T10:24:30.425Z,992.72
2018-09-21T10:25:30.411Z,992.79
2018-09-21T10:26:30.400Z,992.85
2018-09-21T10:27:30.680Z,992.87
2018-09-21T10:28:30.536Z,992.91
2018-09-21T10:29:30.364Z,992.91
2018-09-21T10:30:30.355Z,992.93
2018-09-21T10:31:30.343Z,992.98
2018-09-21T10:32:30.354Z,992.96
2018-09-21T10:33:30.431Z,993.06
2018-09-21T10:34:30.329Z,993.08
2018-09-21T10:35:30.406Z,993.15
2018-09-21T10:36:30.325Z,993.09
2018-09-21T10:37:30.275Z,992.96
2018-09-21T10:38:30.278Z,993.05
2018-09-21T10:39:30.254Z,993.09
2018-09-21T10:40:30.313Z,993.10
2018-09-21T10:41:30.231Z,993.12
2018-09-21T10:42:30.256Z,993.15
2018-09-21T10:43:30.231Z,993.10
2018-09-21T10:44:30.199Z,993.14
2018-09-21T10:45:30.186Z,993.19
2018-09-21T10:46:30.174Z,993.12
2018-09-21T10:47:30.166Z,993.17
2018-09-21T10:48:30.155Z,993.18
2018-09-21T10:49:30.155Z,993.22
2018-09-21T10:50:30.132Z,993.23
2018-09-21T10:51:30.121Z,993.27
2018-09-21T10:52:30.110Z,993.27
2018-09-21T10:53:30.097Z,993.22
2018-09-21T10:54:30.117Z,993.30
2018-09-21T10:55:30.077Z,993.25
2018-09-21T10:56:30.064Z,993.22
2018-09-21T10:57:30.054Z,993.37
2018-09-21T10:58:30.074Z,993.46
2018-09-21T10:59:30.048Z,993.42
2018-09-21T11:00:30.100Z,993.39
2018-09-21T11:01:30.035Z,993.50
2018-09-21T11:02:29.998Z,993.55
2018-09-21T11:03:29.992Z,993.52
2018-09-21T11:04:29.976Z,993.40
2018-09-21T11:05:29.966Z,993.45
2018-09-21T11:06:29.956Z,993.52
2018-09-21T11:07:29.957Z,993.46
2018-09-21T11:08:29.934Z,993.61
2018-09-21T11:09:29.921Z,993.60
2018-09-21T11:10:29.927Z,993.66
2018-09-21T11:11:29.900Z,993.63
2018-09-21T11:12:29.889Z,993.68
2018-09-21T11:13:29.879Z,993.77
2018-09-21T11:14:29.867Z,993.90
2018-09-21T11:15:29.880Z,993.88
2018-09-21T11:16:29.844Z,993.89
2018-09-21T11:17:29.835Z,993.84
2018-09-21T11:18:29.823Z,993.75
2018-09-21T11:19:29.811Z,993.78
2018-09-21T11:20:29.802Z,993.77
2018-09-21T11:21:29.870Z,993.75
2018-09-21T11:22:29.777Z,993.59
2018-09-21T11:23:29.765Z,993.54
2018-09-21T11:24:29.756Z,993.54
2018-09-21T11:25:29.747Z,993.59
2018-09-21T11:26:29.732Z,993.61
2018-09-21T11:27:29.737Z,993.70
2018-09-21T11:28:29.710Z,993.71
2018-09-21T11:29:29.699Z,993.59
2018-09-21T11:30:29.692Z,993.66
2018-09-21T11:31:29.681Z,993.56
2018-09-21T11:32:29.739Z,993.61
2018-09-21T11:33:29.655Z,993.59
2018-09-21T11:34:29.645Z,993.46
2018-09-21T11:35:29.633Z,993.47
2018-09-21T11:36:29.624Z,993.54
2018-09-21T11:37:29.611Z,993.52
2018-09-21T11:38:29.615Z,993.52
2018-09-21T11:39:29.588Z,993.54
2018-09-21T11:40:29.583Z,993.51
2018-09-21T11:41:29.568Z,993.54
2018-09-21T11:42:29.568Z,993.53
2018-09-21T11:43:29.567Z,993.69
2018-09-21T11:44:29.535Z,993.71
2018-09-21T11:45:29.539Z,993.76
2018-09-21T11:46:29.513Z,993.91
2018-09-21T11:47:29.693Z,993.83
2018-09-21T11:48:29.492Z,993.77
2018-09-21T11:49:29.500Z,993.76
2018-09-21T11:50:29.473Z,993.87
2018-09-21T11:51:29.463Z,993.87
2018-09-21T11:52:29.451Z,993.81
2018-09-21T11:53:29.439Z,993.85
2018-09-21T11:54:29.429Z,993.89
2018-09-21T11:55:29.434Z,993.89
2018-09-21T11:56:30.856Z,993.92
2018-09-21T11:57:36.422Z,993.96
2018-09-21T11:58:29.391Z,993.89
2018-09-21T11:59:29.375Z,993.88
2018-09-21T12:00:29.381Z,993.89
2018-09-21T12:01:29.359Z,993.96
2018-09-21T12:02:29.344Z,993.96
2018-09-21T12:03:29.333Z,993.91
2018-09-21T12:04:29.322Z,993.96
2018-09-21T12:05:29.327Z,993.95
2018-09-21T12:06:29.316Z,993.95
2018-09-21T12:07:29.288Z,994.02
2018-09-21T12:08:29.278Z,993.95
2018-09-21T12:09:29.271Z,993.91
2018-09-21T12:10:29.294Z,993.88
2018-09-21T12:11:29.267Z,993.88
2018-09-21T12:12:29.239Z,993.98
2018-09-21T12:13:29.229Z,993.94
2018-09-21T12:14:29.217Z,993.93
2018-09-21T12:15:29.205Z,993.90
2018-09-21T12:16:29.194Z,994.00
2018-09-21T12:17:29.201Z,994.10
2018-09-21T12:18:29.171Z,994.04
2018-09-21T12:19:29.161Z,994.03
2018-09-21T12:20:29.153Z,994.07
2018-09-21T12:21:29.142Z,994.03
2018-09-21T12:22:29.135Z,994.09
2018-09-21T12:23:29.133Z,994.05
2018-09-21T12:24:29.107Z,994.11
2018-09-21T12:25:29.100Z,994.08
2018-09-21T12:26:29.090Z,994.10
2018-09-21T12:27:29.089Z,994.09
2018-09-21T12:28:29.064Z,993.98